createdAt,value
2018-09-27T00:03:18.136Z,8.1
2018-09-27T00:08:20.609Z,8.1
2018-09-27T00:13:23.003Z,8
2018-09-27T00:18:25.458Z,8
2018-09-27T00:23:27.959Z,8.2
2018-09-27T00:28:30.953Z,8.3
2018-09-27T00:33:32.758Z,8.3
2018-09-27T00:38:35.471Z,8.2
2018-09-27T00:43:37.992Z,8.1
2018-09-27T00:48:40.198Z,7.9
2018-09-27T00:53:42.534Z,7.8
2018-09-27T00:58:44.939Z,7.9
2018-09-27T01:03:47.400Z,7.9
2018-09-27T01:08:49.968Z,7.8
2018-09-27T01:13:52.677Z,7.8
2018-09-27T01:18:54.882Z,7.7
2018-09-27T01:23:57.148Z,7.6
2018-09-27T01:28:59.664Z,7.7
2018-09-27T01:34:02.131Z,7.9
2018-09-27T01:39:04.493Z,8
2018-09-27T01:44:07.641Z,8.1
2018-09-27T01:49:09.446Z,8.1
2018-09-27T01:54:11.787Z,8.2
2018-09-27T01:59:14.347Z,8.3
2018-09-27T02:04:16.748Z,8.4
2018-09-27T02:09:19.107Z,8.6
2018-09-27T02:14:24.473Z,8.7
2018-09-27T02:19:24.292Z,8.7
2018-09-27T02:24:26.836Z,8.7
2018-09-27T02:29:28.869Z,8.6
2018-09-27T02:34:31.321Z,8.7
2018-09-27T02:39:33.766Z,8.7
2018-09-27T02:44:36.402Z,8.9
2018-09-27T02:49:38.630Z,9.1
2018-09-27T02:54:41.076Z,9.3
2018-09-27T02:59:43.507Z,9.5
2018-09-27T03:04:45.988Z,9.6
2018-09-27T03:09:48.482Z,9.7
2018-09-27T03:14:50.986Z,9.8
2018-09-27T03:19:53.268Z,9.9
2018-09-27T03:24:55.721Z,9.9
2018-09-27T03:29:58.160Z,9.9
2018-09-27T03:35:00.784Z,9.8
2018-09-27T03:40:03.082Z,9.8
2018-09-27T03:45:05.604Z,9.8
2018-09-27T03:50:07.933Z,9.8
2018-09-27T03:55:10.431Z,9.8
2018-09-27T04:00:13.196Z,9.8
2018-09-27T04:05:15.297Z,9.9
2018-09-27T04:10:18.482Z,9.9
2018-09-27T04:15:20.175Z,9.9
2018-09-27T04:20:22.584Z,10
2018-09-27T04:25:30.132Z,10.1
2018-09-27T04:30:27.481Z,10.1
2018-09-27T04:35:35.044Z,10.1
2018-09-27T04:40:32.521Z,10.1
2018-09-27T04:45:34.852Z,10.1
2018-09-27T04:50:37.250Z,10.2
2018-09-27T04:55:39.678Z,10.2
2018-09-27T05:00:42.091Z,10.3
2018-09-27T05:05:44.542Z,10.3
2018-09-27T05:10:47.014Z,10.3
2018-09-27T05:15:49.507Z,10.3
2018-09-27T05:20:51.882Z,10.4
2018-09-27T05:25:54.303Z,10.5
2018-09-27T05:30:56.790Z,10.5
2018-09-27T05:35:59.187Z,10.5
2018-09-27T05:41:01.635Z,10.5
2018-09-27T05:46:04.089Z,10.5
2018-09-27T05:51:06.521Z,10.5
2018-09-27T05:56:08.947Z,10.5
2018-09-27T06:01:11.779Z,10.5
2018-09-27T06:06:13.960Z,10.5
2018-09-27T06:11:16.541Z,10.6
2018-09-27T06:16:18.881Z,10.6
2018-09-27T06:21:21.487Z,10.6
2018-09-27T06:26:23.602Z,10.6
2018-09-27T06:31:26.176Z,10.7
2018-09-27T06:36:28.510Z,10.7
2018-09-27T06:41:30.970Z,10.7
2018-09-27T06:46:33.339Z,10.8
2018-09-27T06:51:35.764Z,10.8
2018-09-27T06:56:39.090Z,10.9
2018-09-27T07:01:40.705Z,11
2018-09-27T07:06:43.470Z,11
2018-09-27T07:11:45.631Z,11.1
2018-09-27T07:16:48.162Z,11.2
2018-09-27T07:21:50.508Z,11.3
2018-09-27T07:26:52.963Z,11.4
2018-09-27T07:31:55.299Z,11.4
2018-09-27T07:36:57.737Z,11.5
2018-09-27T07:42:00.190Z,11.5
2018-09-27T07:47:02.650Z,11.7
2018-09-27T07:52:05.108Z,11.7
2018-09-27T07:57:07.512Z,11.8
2018-09-27T08:02:10.139Z,11.9
2018-09-27T08:07:12.440Z,12
2018-09-27T08:12:14.802Z,12.1
2018-09-27T08:17:17.622Z,12.2
2018-09-27T08:22:19.828Z,12.2
2018-09-27T08:27:22.198Z,12.3
2018-09-27T08:32:24.676Z,12.4
2018-09-27T08:37:27.215Z,12.5
2018-09-27T08:47:31.962Z,12.7
2018-09-27T08:52:34.348Z,12.6
2018-09-27T08:57:36.936Z,12.6
2018-09-27T09:02:39.284Z,12.7
2018-09-27T09:07:41.820Z,12.7
2018-09-27T09:12:44.089Z,12.8
2018-09-27T09:17:46.619Z,12.8
2018-09-27T09:22:49.062Z,13
2018-09-27T09:27:51.658Z,13.1
2018-09-27T09:32:53.896Z,13.4
2018-09-27T09:37:56.358Z,13.6
2018-09-27T09:42:58.758Z,14.1
2018-09-27T09:48:01.236Z,14.4
2018-09-27T09:53:03.710Z,14.5
2018-09-27T09:58:06.262Z,14.6
2018-09-27T10:03:08.588Z,14.7
2018-09-27T10:08:10.952Z,14.7
2018-09-27T10:13:13.431Z,14.8
2018-09-27T10:18:16.237Z,15.1
2018-09-27T10:23:18.320Z,15.3
2018-09-27T10:28:20.826Z,15.5
2018-09-27T10:33:23.161Z,15.8
2018-09-27T10:38:25.719Z,16.1
2018-09-27T10:43:28.058Z,16.4
2018-09-27T10:48:30.572Z,16.7
2018-09-27T10:53:32.917Z,17
2018-09-27T10:58:35.351Z,17.5
2018-09-27T11:03:37.859Z,17.7
2018-09-27T11:08:40.329Z,18
2018-09-27T11:13:42.738Z,18.7
2018-09-27T11:18:45.209Z,19
2018-09-27T11:23:47.603Z,19.7
2018-09-27T11:28:50.165Z,20.3
2018-09-27T11:33:52.525Z,21
2018-09-27T11:38:55.293Z,21.7
2018-09-27T11:43:57.537Z,22.5
2018-09-27T11:48:59.808Z,23.2
2018-09-27T11:54:02.276Z,23.7
2018-09-27T11:59:04.755Z,24.2
2018-09-27T12:04:07.194Z,24.9
2018-09-27T12:09:10.009Z,25.3
2018-09-27T12:14:13.674Z,25.6
2018-09-27T12:19:14.761Z,25.8
2018-09-27T12:24:16.928Z,26.2
2018-09-27T12:29:19.389Z,26.4
2018-09-27T12:34:21.778Z,26.8
2018-09-27T12:39:24.248Z,27.2
2018-09-27T12:49:29.112Z,28.1
2018-09-27T12:54:31.519Z,28.5
2018-09-27T12:59:33.930Z,28.9
2018-09-27T13:04:36.565Z,29.5
2018-09-27T13:09:39.139Z,30.4
2018-09-27T13:14:47.398Z,31.1
2018-09-27T13:19:43.763Z,31.5
2018-09-27T13:24:46.167Z,31.7
2018-09-27T13:29:48.623Z,31.8
2018-09-27T13:34:51.218Z,32.2
2018-09-27T13:39:53.606Z,32.8
2018-09-27T13:44:56.035Z,33.3
2018-09-27T13:49:58.402Z,32.7
2018-09-27T13:55:00.871Z,32
2018-09-27T14:00:03.288Z,33
2018-09-27T14:05:05.752Z,33.8
2018-09-27T14:10:08.170Z,34.3
2018-09-27T14:15:10.673Z,34.3
2018-09-27T14:20:13.097Z,35
2018-09-27T14:25:15.479Z,35.6
2018-09-27T14:30:17.958Z,35.4
2018-09-27T14:35:20.396Z,35.9
2018-09-27T14:40:22.816Z,36.7
2018-09-27T14:45:25.298Z,37
2018-09-27T14:50:27.712Z,37.6
2018-09-27T14:55:30.143Z,38.1
2018-09-27T15:00:32.677Z,38.4
2018-09-27T15:05:35.067Z,38.6
2018-09-27T15:10:37.551Z,38.5
2018-09-27T15:15:39.910Z,38.8
2018-09-27T15:20:42.682Z,39
2018-09-27T15:25:44.851Z,39.1
2018-09-27T15:30:47.259Z,38.8
2018-09-27T15:35:49.726Z,38.2
2018-09-27T15:40:52.406Z,37.4
2018-09-27T15:45:54.604Z,35.8
2018-09-27T15:50:57.080Z,33.1
2018-09-27T15:55:59.517Z,30
2018-09-27T16:01:02.067Z,27.5
2018-09-27T16:06:04.348Z,25.8
2018-09-27T16:11:07.340Z,24.4
2018-09-27T16:16:09.246Z,23.4
2018-09-27T16:21:11.700Z,22.7
2018-09-27T16:26:14.107Z,22.1
2018-09-27T16:31:17.125Z,21.6
2018-09-27T16:36:19.000Z,21.1
2018-09-27T16:41:21.463Z,20.8
2018-09-27T16:46:23.918Z,20.4
2018-09-27T16:51:26.322Z,20.2
2018-09-27T16:56:28.795Z,19.9
2018-09-27T17:01:31.196Z,19.7
2018-09-27T17:06:33.654Z,19.5
2018-09-27T17:11:36.157Z,19.3
2018-09-27T17:16:38.807Z,19
2018-09-27T17:21:41.084Z,18.8
2018-09-27T17:26:43.468Z,18.6
2018-09-27T17:31:45.957Z,18.4
2018-09-27T17:36:48.383Z,18.4
2018-09-27T17:41:50.767Z,18.4
2018-09-27T17:46:53.240Z,18.5
2018-09-27T17:51:55.649Z,18.6
2018-09-27T17:56:58.237Z,18.5
2018-09-27T18:02:00.483Z,18.5
2018-09-27T18:07:02.913Z,18.3
2018-09-27T18:12:05.389Z,18.2
2018-09-27T18:17:07.829Z,18
2018-09-27T18:22:10.311Z,17.9
2018-09-27T18:27:12.732Z,17.8
2018-09-27T18:32:15.259Z,17.7
2018-09-27T18:37:17.594Z,17.6
2018-09-27T18:42:20.069Z,17.5
2018-09-27T18:47:22.435Z,17.4
2018-09-27T18:52:24.912Z,17.3
2018-09-27T18:57:27.345Z,17.2
2018-09-27T19:02:29.810Z,17
2018-09-27T19:07:32.210Z,16.9
2018-09-27T19:12:34.907Z,16.8
2018-09-27T19:17:37.253Z,16.7
2018-09-27T19:22:39.583Z,16.5
2018-09-27T19:27:42.072Z,16.3
2018-09-27T19:32:44.499Z,16.1
2018-09-27T19:37:46.867Z,15.8
2018-09-27T19:42:49.409Z,15.7
2018-09-27T19:47:51.741Z,15.7
2018-09-27T19:52:54.205Z,15.7
2018-09-27T19:57:56.679Z,15.6
2018-09-27T20:02:59.200Z,15.5
2018-09-27T20:08:01.598Z,15.4
2018-09-27T20:13:04.107Z,15.3
2018-09-27T20:18:06.429Z,15.2
2018-09-27T20:23:08.909Z,15.3
2018-09-27T20:28:11.465Z,15.3
2018-09-27T20:33:13.709Z,15.3
2018-09-27T20:38:16.224Z,15.2
2018-09-27T20:43:18.618Z,15.1
2018-09-27T20:48:21.188Z,15.1
2018-09-27T20:53:23.495Z,14.9
2018-09-27T20:58:26.239Z,14.7
2018-09-27T21:03:28.415Z,14.5
2018-09-27T21:13:33.242Z,14.3
2018-09-27T21:18:35.717Z,14.2
2018-09-27T21:23:38.111Z,14.1
2018-09-27T21:28:40.554Z,13.9
2018-09-27T21:33:43.009Z,13.9
2018-09-27T21:38:45.518Z,14.1
2018-09-27T21:43:47.862Z,14.1
2018-09-27T21:48:50.401Z,14
2018-09-27T21:53:52.832Z,13.8
2018-09-27T21:58:55.184Z,13.6
2018-09-27T22:03:57.671Z,13.4
2018-09-27T22:09:00.214Z,13.3
2018-09-27T22:14:02.861Z,13.3
2018-09-27T22:19:05.000Z,13.5
2018-09-27T22:24:07.433Z,13.8
2018-09-27T22:29:09.908Z,13.8
2018-09-27T22:34:12.334Z,13.5
2018-09-27T22:39:14.744Z,13.3
2018-09-27T22:44:17.763Z,13.1
2018-09-27T22:49:19.619Z,13
2018-09-27T22:54:22.210Z,12.9
2018-09-27T22:59:24.573Z,13.1
2018-09-27T23:04:27.178Z,13.3
2018-09-27T23:09:29.345Z,13.4
2018-09-27T23:14:32.019Z,13.4
2018-09-27T23:19:34.367Z,13.5
2018-09-27T23:24:36.739Z,13.3
2018-09-27T23:29:39.311Z,13.1
2018-09-27T23:34:41.599Z,13
2018-09-27T23:39:44.075Z,12.8
2018-09-27T23:44:46.478Z,12.7
2018-09-27T23:49:48.861Z,12.5
2018-09-27T23:54:51.353Z,12.4
2018-09-27T23:59:53.862Z,12.2
